createdAt,value
2022-10-20T00:02:27.846Z,9.50
2022-10-20T00:05:29.082Z,8.15
2022-10-20T00:08:30.364Z,9.18
2022-10-20T00:11:32.199Z,8.48
2022-10-20T00:14:33.495Z,9.48
2022-10-20T00:17:34.721Z,10.77
2022-10-20T00:20:39.341Z,9.40
2022-10-20T00:26:41.728Z,9.95
2022-10-20T00:29:42.969Z,8.82
2022-10-20T00:32:46.711Z,9.23
2022-10-20T00:35:47.983Z,8.73
2022-10-20T00:38:49.618Z,11.65
2022-10-20T00:41:50.896Z,9.40
2022-10-20T00:44:54.118Z,11.88
2022-10-20T00:47:57.460Z,10.95
2022-10-20T00:50:58.717Z,10.43
2022-10-20T00:54:08.819Z,11.75
2022-10-20T00:57:10.104Z,10.82
2022-10-20T01:00:11.553Z,12.30
2022-10-20T01:03:18.259Z,12.73
2022-10-20T01:06:20.486Z,10.30
2022-10-20T01:09:21.791Z,8.60
2022-10-20T01:12:42.043Z,9.55
2022-10-20T01:15:58.682Z,9.18
2022-10-20T01:19:01.921Z,10.90
2022-10-20T01:22:03.169Z,10.75
2022-10-20T01:25:42.796Z,8.07
2022-10-20T01:28:50.629Z,13.13
2022-10-20T01:32:10.195Z,10.55
2022-10-20T01:35:14.191Z,8.15
2022-10-20T01:38:30.556Z,10.73
2022-10-20T01:41:38.413Z,9.70
2022-10-20T01:44:40.639Z,12.10
2022-10-20T01:47:42.440Z,8.27
2022-10-20T01:50:46.067Z,12.40
2022-10-20T01:53:47.298Z,10.93
2022-10-20T01:56:51.240Z,12.57
2022-10-20T01:59:58.580Z,9.65
2022-10-20T02:03:14.029Z,11.10
2022-10-20T02:06:21.480Z,10.20
2022-10-20T02:09:27.309Z,9.77
2022-10-20T02:12:32.059Z,10.02
2022-10-20T02:15:35.782Z,13.00
2022-10-20T02:18:40.774Z,9.18
2022-10-20T02:21:42.048Z,11.43
2022-10-20T02:24:43.974Z,11.38
2022-10-20T02:27:46.974Z,11.55
2022-10-20T02:30:48.445Z,8.82
2022-10-20T02:33:50.095Z,8.23
2022-10-20T02:36:54.853Z,8.90
2022-10-20T02:39:56.069Z,8.50
2022-10-20T02:42:57.343Z,8.70
2022-10-20T02:45:58.578Z,10.15
2022-10-20T02:48:59.849Z,10.20
2022-10-20T02:52:01.105Z,6.80
2022-10-20T02:55:02.678Z,9.18
2022-10-20T02:58:03.936Z,14.02
2022-10-20T03:01:05.267Z,9.82
2022-10-20T03:04:06.512Z,8.27
2022-10-20T03:07:07.777Z,9.95
2022-10-20T03:10:09.105Z,11.02
2022-10-20T03:13:10.915Z,8.48
2022-10-20T03:16:12.143Z,14.50
2022-10-20T03:19:13.442Z,11.07
2022-10-20T03:22:14.883Z,11.05
2022-10-20T03:25:16.151Z,8.82
2022-10-20T03:28:17.410Z,9.48
2022-10-20T03:31:18.661Z,8.32
2022-10-20T03:34:19.888Z,9.85
2022-10-20T03:37:21.193Z,8.95
2022-10-20T03:40:22.545Z,10.68
2022-10-20T03:43:23.843Z,10.68
2022-10-20T03:46:25.142Z,8.27
2022-10-20T03:49:26.379Z,9.85
2022-10-20T03:52:27.800Z,9.23
2022-10-20T03:55:29.047Z,10.05
2022-10-20T03:58:30.282Z,9.25
2022-10-20T04:01:32.139Z,8.02
2022-10-20T04:04:33.570Z,9.00
2022-10-20T04:07:34.786Z,12.10
2022-10-20T04:10:36.037Z,8.55
2022-10-20T04:13:37.362Z,10.95
2022-10-20T04:16:38.619Z,7.30
2022-10-20T04:19:39.848Z,10.40
2022-10-20T04:22:41.123Z,7.97
2022-10-20T04:25:45.826Z,8.43
2022-10-20T04:28:47.082Z,9.52
2022-10-20T04:31:49.287Z,8.65
2022-10-20T04:34:50.697Z,11.55
2022-10-20T04:37:51.935Z,11.10
2022-10-20T04:41:04.015Z,7.50
2022-10-20T04:44:05.638Z,9.65
2022-10-20T04:47:06.884Z,9.57
2022-10-20T04:50:08.394Z,9.35
2022-10-20T04:53:09.659Z,8.50
2022-10-20T04:56:12.993Z,10.95
2022-10-20T04:59:14.258Z,10.88
2022-10-20T05:02:15.560Z,10.88
2022-10-20T05:05:17.018Z,9.65
2022-10-20T05:08:18.283Z,9.63
2022-10-20T05:11:20.240Z,9.25
2022-10-20T05:14:21.541Z,9.80
2022-10-20T05:17:22.777Z,7.38
2022-10-20T05:20:24.015Z,7.72
2022-10-20T05:23:25.455Z,9.52
2022-10-20T05:26:27.192Z,9.90
2022-10-20T05:29:28.568Z,10.40
2022-10-20T05:32:29.868Z,10.18
2022-10-20T05:35:31.585Z,10.35
2022-10-20T05:38:32.841Z,7.53
2022-10-20T05:41:37.892Z,8.20
2022-10-20T05:44:40.457Z,9.35
2022-10-20T05:47:42.799Z,12.43
2022-10-20T05:53:47.091Z,8.32
2022-10-20T05:56:48.365Z,8.25
2022-10-20T05:59:49.622Z,10.45
2022-10-20T06:02:53.605Z,15.25
2022-10-20T06:05:58.267Z,10.25
2022-10-20T06:09:00.825Z,10.43
2022-10-20T06:12:02.150Z,10.98
2022-10-20T06:15:03.570Z,8.65
2022-10-20T06:18:04.790Z,11.32
2022-10-20T06:21:07.359Z,12.15
2022-10-20T06:24:09.579Z,10.18
2022-10-20T06:27:10.818Z,12.15
2022-10-20T06:30:12.092Z,11.23
2022-10-20T06:33:16.816Z,10.57
2022-10-20T06:36:18.866Z,7.43
2022-10-20T06:39:21.751Z,11.80
2022-10-20T06:42:22.978Z,7.43
2022-10-20T06:45:24.230Z,9.45
2022-10-20T06:48:25.724Z,8.25
2022-10-20T06:51:26.975Z,9.50
2022-10-20T06:54:28.323Z,11.85
2022-10-20T06:57:31.467Z,8.15
2022-10-20T07:00:32.716Z,8.30
2022-10-20T07:03:34.847Z,11.50
2022-10-20T07:06:40.169Z,14.00
2022-10-20T07:09:41.393Z,8.98
2022-10-20T07:12:42.641Z,9.05
2022-10-20T07:15:46.059Z,9.40
2022-10-20T07:18:47.482Z,10.88
2022-10-20T07:21:49.357Z,9.20
2022-10-20T07:24:50.598Z,10.52
2022-10-20T07:27:51.842Z,11.38
2022-10-20T07:30:53.101Z,10.38
2022-10-20T07:34:06.891Z,9.20
2022-10-20T07:37:08.596Z,11.05
2022-10-20T07:40:10.212Z,14.70
2022-10-20T07:43:11.577Z,8.00
2022-10-20T07:46:13.386Z,11.18
2022-10-20T07:52:36.253Z,8.70
2022-10-20T07:55:38.901Z,9.32
2022-10-20T07:58:41.157Z,9.68
2022-10-20T08:01:42.695Z,8.45
2022-10-20T08:04:44.098Z,8.68
2022-10-20T08:07:48.937Z,10.20
2022-10-20T08:10:50.624Z,7.28
2022-10-20T08:13:51.950Z,11.27
2022-10-20T08:16:56.192Z,8.75
2022-10-20T08:20:04.626Z,7.97
2022-10-20T08:23:05.954Z,9.43
2022-10-20T08:26:10.752Z,9.85
2022-10-20T08:29:12.849Z,11.75
2022-10-20T08:32:14.323Z,9.88
2022-10-20T08:35:15.612Z,11.13
2022-10-20T08:38:16.900Z,8.88
2022-10-20T08:41:19.421Z,9.77
2022-10-20T08:44:23.725Z,10.43
2022-10-20T08:47:30.660Z,9.57
2022-10-20T08:50:33.957Z,9.32
2022-10-20T08:53:38.518Z,9.43
2022-10-20T08:56:39.746Z,10.50
2022-10-20T08:59:40.974Z,8.85
2022-10-20T09:02:42.659Z,10.02
2022-10-20T09:05:45.711Z,9.95
2022-10-20T09:08:47.203Z,8.90
2022-10-20T09:11:48.826Z,8.38
2022-10-20T09:14:50.055Z,7.47
2022-10-20T09:17:54.259Z,8.68
2022-10-20T09:24:00.300Z,8.25
2022-10-20T09:27:18.982Z,8.10
2022-10-20T09:30:22.798Z,6.38
2022-10-20T09:33:31.948Z,7.38
2022-10-20T09:36:36.487Z,7.45
2022-10-20T09:39:51.330Z,7.55
2022-10-20T09:43:15.825Z,7.10
2022-10-20T09:46:18.692Z,6.70
2022-10-20T09:49:30.611Z,7.18
2022-10-20T09:52:44.346Z,8.13
2022-10-20T09:55:47.440Z,7.55
2022-10-20T09:58:48.696Z,6.10
2022-10-20T10:01:57.514Z,7.03
2022-10-20T10:05:19.296Z,8.38
2022-10-20T10:08:21.258Z,7.60
2022-10-20T10:11:24.127Z,6.38
2022-10-20T10:14:27.419Z,8.25
2022-10-20T10:17:33.972Z,8.10
2022-10-20T10:20:37.731Z,7.65
2022-10-20T10:23:52.465Z,10.93
2022-10-20T10:26:54.614Z,8.57
2022-10-20T10:30:15.953Z,8.45
2022-10-20T10:33:25.209Z,8.45
2022-10-20T10:36:26.480Z,7.50
2022-10-20T10:39:29.722Z,8.48
2022-10-20T10:42:49.602Z,8.25
2022-10-20T10:45:51.964Z,7.25
2022-10-20T10:49:19.968Z,7.43
2022-10-20T10:52:29.018Z,7.47
2022-10-20T10:55:48.418Z,7.75
2022-10-20T10:58:56.415Z,10.18
2022-10-20T11:01:57.605Z,6.63
2022-10-20T11:05:13.925Z,8.52
2022-10-20T11:08:26.002Z,6.97
2022-10-20T11:11:44.199Z,6.15
2022-10-20T11:15:06.246Z,8.25
2022-10-20T11:18:26.270Z,8.05
2022-10-20T11:21:46.148Z,7.70
2022-10-20T11:24:50.484Z,8.25
2022-10-20T11:27:51.755Z,7.55
2022-10-20T11:30:53.482Z,7.72
2022-10-20T11:33:59.983Z,6.80
2022-10-20T11:37:19.775Z,8.13
2022-10-20T11:40:26.643Z,7.35
2022-10-20T11:43:39.184Z,7.32
2022-10-20T11:46:42.403Z,7.50
2022-10-20T11:49:43.883Z,6.55
2022-10-20T11:52:58.938Z,7.30
2022-10-20T11:56:15.275Z,7.47
2022-10-20T11:59:16.493Z,6.97
2022-10-20T12:02:38.326Z,8.10
2022-10-20T12:05:42.770Z,8.05
2022-10-20T12:08:44.051Z,6.82
2022-10-20T12:12:05.459Z,7.80
2022-10-20T12:15:20.813Z,6.95
2022-10-20T12:18:29.862Z,8.80
2022-10-20T12:21:49.777Z,7.53
2022-10-20T12:24:51.097Z,7.90
2022-10-20T12:28:10.998Z,7.40
2022-10-20T12:31:12.325Z,9.13
2022-10-20T12:34:23.477Z,8.23
2022-10-20T12:37:25.848Z,10.45
2022-10-20T12:40:27.229Z,8.82
2022-10-20T12:43:34.346Z,8.98
2022-10-20T12:46:39.408Z,8.18
2022-10-20T12:49:45.250Z,7.60
2022-10-20T12:52:46.885Z,9.68
2022-10-20T12:55:54.028Z,9.07
2022-10-20T12:59:07.258Z,10.32
2022-10-20T13:02:08.465Z,8.50
2022-10-20T13:05:09.779Z,10.27
2022-10-20T13:08:22.578Z,9.02
2022-10-20T13:11:35.707Z,12.88
2022-10-20T13:14:48.471Z,13.00
2022-10-20T13:17:49.715Z,9.23
2022-10-20T13:21:11.347Z,9.88
2022-10-20T13:24:13.605Z,9.27
2022-10-20T13:27:15.845Z,8.43
2022-10-20T13:30:22.194Z,9.98
2022-10-20T13:33:44.483Z,10.32
2022-10-20T13:37:09.456Z,12.85
2022-10-20T13:40:13.861Z,13.25
2022-10-20T13:43:18.473Z,10.48
2022-10-20T13:46:26.228Z,10.35
2022-10-20T13:49:49.334Z,11.57
2022-10-20T13:52:56.737Z,10.35
2022-10-20T13:56:20.345Z,14.27
2022-10-20T13:59:24.974Z,11.63
2022-10-20T14:02:32.328Z,14.57
2022-10-20T14:05:38.822Z,12.38
2022-10-20T14:08:44.003Z,11.85
2022-10-20T14:11:46.974Z,14.05
2022-10-20T14:14:49.188Z,13.07
2022-10-20T14:18:05.929Z,13.63
2022-10-20T14:21:15.275Z,13.25
2022-10-20T14:24:22.527Z,15.40
2022-10-20T14:27:28.666Z,14.25
2022-10-20T14:30:30.658Z,11.73
2022-10-20T14:33:33.491Z,13.13
2022-10-20T14:36:34.746Z,12.93
2022-10-20T14:39:37.185Z,14.27
2022-10-20T14:42:44.258Z,13.85
2022-10-20T14:45:53.046Z,17.67
2022-10-20T14:48:54.333Z,12.32
2022-10-20T14:51:58.815Z,11.18
2022-10-20T14:55:00.308Z,13.95
2022-10-20T14:58:01.543Z,16.33
2022-10-20T15:01:20.994Z,13.80
2022-10-20T15:04:25.827Z,14.07
2022-10-20T15:07:34.776Z,15.40
2022-10-20T15:10:37.627Z,13.65
2022-10-20T15:13:38.929Z,13.75
2022-10-20T15:16:40.141Z,13.25
2022-10-20T15:19:41.438Z,12.73
2022-10-20T15:22:42.725Z,13.88
2022-10-20T15:25:50.024Z,13.20
2022-10-20T15:28:53.062Z,14.55
2022-10-20T15:31:54.813Z,13.82
2022-10-20T15:34:56.067Z,16.80
2022-10-20T15:37:57.307Z,14.98
2022-10-20T15:44:04.443Z,16.23
2022-10-20T15:47:06.529Z,12.98
2022-10-20T15:50:09.942Z,15.50
2022-10-20T15:53:12.014Z,12.05
2022-10-20T15:56:13.283Z,13.30
2022-10-20T15:59:14.578Z,12.98
2022-10-20T16:02:15.800Z,14.00
2022-10-20T16:05:18.837Z,15.13
2022-10-20T16:08:20.853Z,13.32
2022-10-20T16:11:22.114Z,14.75
2022-10-20T16:14:23.362Z,12.35
2022-10-20T16:17:24.679Z,13.10
2022-10-20T16:20:25.958Z,14.55
2022-10-20T16:23:29.404Z,13.70
2022-10-20T16:26:30.810Z,14.18
2022-10-20T16:29:32.333Z,13.45
2022-10-20T16:32:35.322Z,16.00
2022-10-20T16:35:44.361Z,13.77
2022-10-20T16:38:45.604Z,12.85
2022-10-20T16:41:47.036Z,16.40
2022-10-20T16:44:48.268Z,12.90
2022-10-20T16:47:49.773Z,15.90
2022-10-20T16:50:51.319Z,14.90
2022-10-20T16:53:59.547Z,15.15
2022-10-20T16:57:06.381Z,16.98
2022-10-20T17:00:08.354Z,16.25
2022-10-20T17:03:09.652Z,13.00
2022-10-20T17:06:11.417Z,14.55
2022-10-20T17:09:13.724Z,14.70
2022-10-20T17:12:16.025Z,11.85
2022-10-20T17:15:18.247Z,12.55
2022-10-20T17:18:20.623Z,14.80
2022-10-20T17:21:23.056Z,14.93
2022-10-20T17:24:24.493Z,13.95
2022-10-20T17:27:26.245Z,18.13
2022-10-20T17:30:29.621Z,14.75
2022-10-20T17:33:31.789Z,13.35
2022-10-20T17:36:33.298Z,13.07
2022-10-20T17:39:34.666Z,13.27
2022-10-20T17:42:36.203Z,15.02
2022-10-20T17:45:38.332Z,17.52
2022-10-20T17:48:39.975Z,16.90
2022-10-20T17:51:41.343Z,17.52
2022-10-20T17:54:42.608Z,22.58
2022-10-20T17:57:43.866Z,20.75
2022-10-20T18:00:55.991Z,14.02
2022-10-20T18:03:58.773Z,14.88
2022-10-20T18:07:00.006Z,14.07
2022-10-20T18:10:01.910Z,14.02
2022-10-20T18:13:03.151Z,15.52
2022-10-20T18:16:08.865Z,16.52
2022-10-20T18:19:13.335Z,20.90
2022-10-20T18:22:16.153Z,19.20
2022-10-20T18:25:18.547Z,19.30
2022-10-20T18:28:20.325Z,13.95
2022-10-20T18:31:23.069Z,15.40
2022-10-20T18:34:25.397Z,14.88
2022-10-20T18:37:27.944Z,14.23
2022-10-20T18:40:29.401Z,12.27
2022-10-20T18:43:31.739Z,12.85
2022-10-20T18:46:35.360Z,11.77
2022-10-20T18:49:36.726Z,13.55
2022-10-20T18:52:38.129Z,12.13
2022-10-20T18:55:40.178Z,11.77
2022-10-20T18:58:43.498Z,10.57
2022-10-20T19:01:46.825Z,13.77
2022-10-20T19:04:48.428Z,11.43
2022-10-20T19:07:50.458Z,12.13
2022-10-20T19:10:53.803Z,11.85
2022-10-20T19:13:55.555Z,14.70
2022-10-20T19:16:56.829Z,15.32
2022-10-20T19:19:58.128Z,12.07
2022-10-20T19:23:00.775Z,14.60
2022-10-20T19:26:04.950Z,13.93
2022-10-20T19:29:08.086Z,14.70
2022-10-20T19:32:09.612Z,13.77
2022-10-20T19:35:11.106Z,13.52
2022-10-20T19:38:12.389Z,13.25
2022-10-20T19:41:13.773Z,14.70
2022-10-20T19:44:16.146Z,13.38
2022-10-20T19:47:17.994Z,12.40
2022-10-20T19:50:19.317Z,9.85
2022-10-20T19:53:21.003Z,12.20
2022-10-20T19:56:22.331Z,13.40
2022-10-20T19:59:24.682Z,9.55
2022-10-20T20:02:26.561Z,10.88
2022-10-20T20:05:29.620Z,11.98
2022-10-20T20:08:31.152Z,11.95
2022-10-20T20:11:32.606Z,12.35
2022-10-20T20:14:33.979Z,13.07
2022-10-20T20:17:36.206Z,13.13
2022-10-20T20:20:40.938Z,12.98
2022-10-20T20:23:58.387Z,12.00
2022-10-20T20:27:00.404Z,10.45
2022-10-20T20:30:03.409Z,11.38
2022-10-20T20:33:05.919Z,12.20
2022-10-20T20:36:08.303Z,13.80
2022-10-20T20:39:10.952Z,11.80
2022-10-20T20:42:12.190Z,13.60
2022-10-20T20:45:14.149Z,13.43
2022-10-20T20:48:15.416Z,12.70
2022-10-20T20:51:17.019Z,13.65
2022-10-20T20:54:18.267Z,12.48
2022-10-20T20:57:19.931Z,13.80
2022-10-20T21:00:21.705Z,13.15
2022-10-20T21:03:23.016Z,9.60
2022-10-20T21:06:33.266Z,13.88
2022-10-20T21:09:35.492Z,12.05
2022-10-20T21:12:37.097Z,11.45
2022-10-20T21:15:38.591Z,10.82
2022-10-20T21:18:40.558Z,12.68
2022-10-20T21:21:44.224Z,10.02
2022-10-20T21:24:45.476Z,10.95
2022-10-20T21:27:46.782Z,12.80
2022-10-20T21:30:48.657Z,11.25
2022-10-20T21:33:50.622Z,11.55
2022-10-20T21:36:52.797Z,11.07
2022-10-20T21:39:54.196Z,11.48
2022-10-20T21:42:55.866Z,10.27
2022-10-20T21:45:57.163Z,9.90
2022-10-20T21:48:59.819Z,9.32
2022-10-20T21:52:01.049Z,10.45
2022-10-20T21:55:02.318Z,9.25
2022-10-20T21:58:04.181Z,11.60
2022-10-20T22:01:13.142Z,9.57
2022-10-20T22:04:14.621Z,10.63
2022-10-20T22:07:15.859Z,11.48
2022-10-20T22:10:17.175Z,10.57
2022-10-20T22:13:18.506Z,8.80
2022-10-20T22:16:21.586Z,8.70
2022-10-20T22:19:23.680Z,10.57
2022-10-20T22:22:25.513Z,9.52
2022-10-20T22:25:26.762Z,10.35
2022-10-20T22:28:28.421Z,10.57
2022-10-20T22:31:29.648Z,11.38
2022-10-20T22:34:31.336Z,11.50
2022-10-20T22:37:32.610Z,12.43
2022-10-20T22:40:34.272Z,10.15
2022-10-20T22:43:35.508Z,11.70
2022-10-20T22:46:36.765Z,8.57
2022-10-20T22:49:38.014Z,11.65
2022-10-20T22:52:39.565Z,10.63
2022-10-20T22:55:41.562Z,10.77
2022-10-20T22:58:43.248Z,11.10
2022-10-20T23:01:45.655Z,12.10
2022-10-20T23:04:46.887Z,12.23
2022-10-20T23:07:48.330Z,10.30
2022-10-20T23:10:56.953Z,8.32
2022-10-20T23:13:58.329Z,11.52
2022-10-20T23:16:59.587Z,9.30
2022-10-20T23:20:00.934Z,8.68
2022-10-20T23:23:02.266Z,11.85
2022-10-20T23:26:04.895Z,10.05
2022-10-20T23:29:06.293Z,8.98
2022-10-20T23:32:07.608Z,8.65
2022-10-20T23:35:08.946Z,10.30
2022-10-20T23:38:10.268Z,7.85
2022-10-20T23:41:11.695Z,10.13
2022-10-20T23:44:13.398Z,11.13
2022-10-20T23:47:15.009Z,9.70
2022-10-20T23:50:16.596Z,11.60
2022-10-20T23:53:18.256Z,9.98
2022-10-20T23:56:20.209Z,9.40
2022-10-20T23:59:22.171Z,10.23
